createdAt,value
2023-01-05T00:02:24.935Z,101155.53
2023-01-05T00:07:26.801Z,101155.63
2023-01-05T00:12:46.877Z,101165.09
2023-01-05T00:18:07.117Z,101166.13
2023-01-05T00:23:09.513Z,101164.19
2023-01-05T00:28:11.234Z,101166.94
2023-01-05T00:33:17.716Z,101172.91
2023-01-05T00:38:19.362Z,101178.38
2023-01-05T00:43:21.181Z,101170.50
2023-01-05T00:48:23.035Z,101165.19
2023-01-05T00:53:24.698Z,101159.22
2023-01-05T00:58:26.360Z,101164.34
2023-01-05T01:03:28.031Z,101157.66
2023-01-05T01:08:30.103Z,101160.41
2023-01-05T01:13:32.149Z,101158.19
2023-01-05T01:18:34.023Z,101159.78
2023-01-05T01:23:39.691Z,101166.13
2023-01-05T01:28:41.359Z,101166.38
2023-01-05T01:33:43.053Z,101175.19
2023-01-05T01:38:44.718Z,101184.53
2023-01-05T01:43:49.491Z,101194.19
2023-01-05T01:49:01.311Z,101192.72
2023-01-05T01:54:06.351Z,101199.13
2023-01-05T01:59:08.828Z,101207.81
2023-01-05T02:04:12.014Z,101210.03
2023-01-05T02:09:13.758Z,101198.91
2023-01-05T02:14:27.669Z,101212.31
2023-01-05T02:19:53.878Z,101210.28
2023-01-05T02:24:58.484Z,101212.88
2023-01-05T02:30:15.359Z,101213.91
2023-01-05T02:35:23.069Z,101212.34
2023-01-05T02:40:33.186Z,101220.13
2023-01-05T02:45:34.848Z,101216.66
2023-01-05T02:51:08.638Z,101214.06
2023-01-05T02:56:20.694Z,101216.81
2023-01-05T03:01:36.163Z,101216.06
2023-01-05T03:06:57.413Z,101207.66
2023-01-05T03:12:29.274Z,101215.38
2023-01-05T03:17:50.023Z,101232.34
2023-01-05T03:23:12.055Z,101217.66
2023-01-05T03:28:57.660Z,101226.53
2023-01-05T03:34:36.347Z,101232.34
2023-01-05T03:39:42.441Z,101232.81
2023-01-05T03:44:46.199Z,101231.75
2023-01-05T03:49:47.918Z,101235.00
2023-01-05T03:54:49.873Z,101243.97
2023-01-05T03:59:51.612Z,101232.34
2023-01-05T04:04:53.285Z,101237.84
2023-01-05T04:09:55.008Z,101248.28
2023-01-05T04:14:56.652Z,101250.38
2023-01-05T04:19:58.484Z,101237.56
2023-01-05T04:25:00.222Z,101237.91
2023-01-05T04:30:01.892Z,101248.19
2023-01-05T04:35:10.586Z,101254.22
2023-01-05T04:40:13.156Z,101240.50
2023-01-05T04:45:14.844Z,101247.84
2023-01-05T04:50:16.605Z,101251.97
2023-01-05T04:55:18.398Z,101265.16
2023-01-05T05:00:20.146Z,101266.19
2023-01-05T05:05:21.896Z,101265.88
2023-01-05T05:10:23.636Z,101251.75
2023-01-05T05:15:25.277Z,101259.88
2023-01-05T05:20:27.172Z,101263.16
2023-01-05T05:25:28.961Z,101271.41
2023-01-05T05:30:30.729Z,101271.31
2023-01-05T05:35:32.373Z,101266.81
2023-01-05T05:40:34.210Z,101283.38
2023-01-05T05:45:36.208Z,101282.75
2023-01-05T05:50:37.926Z,101289.84
2023-01-05T05:55:39.784Z,101302.13
2023-01-05T06:00:41.800Z,101282.50
2023-01-05T06:05:44.796Z,101296.78
2023-01-05T06:10:46.608Z,101299.28
2023-01-05T06:15:48.540Z,101303.16
2023-01-05T06:20:50.267Z,101318.72
2023-01-05T06:25:51.921Z,101324.66
2023-01-05T06:30:53.748Z,101335.50
2023-01-05T06:35:55.389Z,101343.53
2023-01-05T06:40:58.217Z,101337.31
2023-01-05T06:45:59.906Z,101342.63
2023-01-05T06:51:01.616Z,101337.97
2023-01-05T06:56:03.345Z,101353.06
2023-01-05T07:01:05.271Z,101358.53
2023-01-05T07:06:12.861Z,101355.84
2023-01-05T07:11:16.325Z,101369.97
2023-01-05T07:16:18.454Z,101372.72
2023-01-05T07:21:20.597Z,101379.78
2023-01-05T07:26:22.263Z,101386.72
2023-01-05T07:31:24.080Z,101385.78
2023-01-05T07:36:25.965Z,101385.22
2023-01-05T07:41:27.856Z,101377.00
2023-01-05T07:46:29.502Z,101391.09
2023-01-05T07:51:31.182Z,101398.00
2023-01-05T07:56:32.940Z,101414.06
2023-01-05T08:01:34.675Z,101421.22
2023-01-05T08:06:36.649Z,101432.88
2023-01-05T08:11:38.287Z,101423.16
2023-01-05T08:16:40.233Z,101436.06
2023-01-05T08:21:42.001Z,101429.56
2023-01-05T08:26:43.871Z,101435.59
2023-01-05T08:31:45.635Z,101432.72
2023-01-05T08:36:47.498Z,101439.09
2023-01-05T08:41:49.253Z,101445.00
2023-01-05T08:46:51.250Z,101449.50
2023-01-05T08:51:53.172Z,101447.88
2023-01-05T08:56:54.902Z,101449.81
2023-01-05T09:01:56.751Z,101451.41
2023-01-05T09:06:58.744Z,101466.38
2023-01-05T09:12:00.429Z,101468.88
2023-01-05T09:17:09.791Z,101480.66
2023-01-05T09:22:11.968Z,101497.63
2023-01-05T09:27:13.738Z,101488.28
2023-01-05T09:32:15.750Z,101499.13
2023-01-05T09:37:17.751Z,101507.00
2023-01-05T09:42:22.925Z,101506.19
2023-01-05T09:47:35.101Z,101508.66
2023-01-05T09:52:38.692Z,101514.09
2023-01-05T09:57:41.243Z,101525.56
2023-01-05T10:03:08.934Z,101532.88
2023-01-05T10:08:32.644Z,101533.88
2023-01-05T10:13:37.846Z,101525.75
2023-01-05T10:18:39.843Z,101524.88
2023-01-05T10:23:47.536Z,101527.75
2023-01-05T10:29:22.305Z,101528.72
2023-01-05T10:34:47.710Z,101540.81
2023-01-05T10:39:58.563Z,101543.66
2023-01-05T10:45:03.668Z,101542.94
2023-01-05T10:50:20.622Z,101549.00
2023-01-05T10:55:24.311Z,101546.31
2023-01-05T11:00:42.160Z,101550.81
2023-01-05T11:05:48.552Z,101548.09
2023-01-05T11:10:53.285Z,101546.34
2023-01-05T11:16:22.965Z,101544.72
2023-01-05T11:21:44.539Z,101544.84
2023-01-05T11:26:58.940Z,101551.34
2023-01-05T11:32:06.288Z,101550.06
2023-01-05T11:37:28.147Z,101553.13
2023-01-05T11:42:31.889Z,101549.22
2023-01-05T11:47:50.610Z,101553.66
2023-01-05T11:53:02.819Z,101546.53
2023-01-05T11:58:14.816Z,101532.28
2023-01-05T12:03:58.636Z,101520.66
2023-01-05T12:09:10.128Z,101535.75
2023-01-05T12:14:26.909Z,101534.66
2023-01-05T12:19:34.470Z,101520.84
2023-01-05T12:24:38.981Z,101522.72
2023-01-05T12:36:00.183Z,101529.75
2023-01-05T12:41:20.756Z,101526.19
2023-01-05T12:46:48.610Z,101522.44
2023-01-05T12:52:12.870Z,101514.41
2023-01-05T12:57:23.582Z,101520.19
2023-01-05T13:02:33.463Z,101523.25
2023-01-05T13:08:07.799Z,101515.16
2023-01-05T13:13:21.001Z,101510.59
2023-01-05T13:18:25.935Z,101498.13
2023-01-05T13:23:31.298Z,101507.66
2023-01-05T13:28:34.786Z,101498.81
2023-01-05T13:34:32.104Z,101497.09
2023-01-05T13:39:58.901Z,101497.00
2023-01-05T13:45:20.032Z,101495.16
2023-01-05T13:50:39.481Z,101487.31
2023-01-05T13:55:48.354Z,101490.66
2023-01-05T14:00:52.935Z,101502.25
2023-01-05T14:05:57.838Z,101487.13
2023-01-05T14:11:19.878Z,101498.63
2023-01-05T14:16:33.497Z,101496.91
2023-01-05T14:21:50.254Z,101489.19
2023-01-05T14:27:00.778Z,101498.63
2023-01-05T14:32:08.017Z,101504.13
2023-01-05T14:37:22.812Z,101506.59
2023-01-05T14:42:34.586Z,101503.22
2023-01-05T14:47:46.253Z,101510.00
2023-01-05T14:53:00.110Z,101519.16
2023-01-05T14:58:14.403Z,101516.22
2023-01-05T15:03:22.132Z,101527.47
2023-01-05T15:08:51.618Z,101526.72
2023-01-05T15:14:21.084Z,101530.50
2023-01-05T15:19:31.970Z,101522.41
2023-01-05T15:24:46.110Z,101508.41
2023-01-05T15:30:12.647Z,101517.53
2023-01-05T15:35:36.985Z,101521.69
2023-01-05T15:40:38.722Z,101509.34
2023-01-05T15:45:43.440Z,101514.59
2023-01-05T15:50:47.987Z,101503.94
2023-01-05T15:55:52.138Z,101493.22
2023-01-05T16:01:15.263Z,101496.00
2023-01-05T16:06:23.892Z,101490.81
2023-01-05T16:11:31.779Z,101488.53
2023-01-05T16:16:53.991Z,101493.06
2023-01-05T16:22:08.276Z,101488.69
2023-01-05T16:27:13.287Z,101483.84
2023-01-05T16:32:32.012Z,101480.72
2023-01-05T16:37:33.724Z,101481.78
2023-01-05T16:42:45.807Z,101471.72
2023-01-05T16:47:47.591Z,101467.69
2023-01-05T16:53:16.189Z,101473.25
2023-01-05T16:58:29.971Z,101467.09
2023-01-05T17:03:32.676Z,101455.44
2023-01-05T17:08:37.776Z,101453.44
2023-01-05T17:13:47.864Z,101450.97
2023-01-05T17:18:50.148Z,101460.81
2023-01-05T17:23:54.883Z,101458.75
2023-01-05T17:34:05.209Z,101447.97
2023-01-05T17:39:07.001Z,101445.25
2023-01-05T17:44:08.827Z,101449.31
2023-01-05T17:49:19.464Z,101455.09
2023-01-05T17:54:21.215Z,101443.81
2023-01-05T17:59:22.939Z,101441.06
2023-01-05T18:04:26.274Z,101447.19
2023-01-05T18:09:29.337Z,101433.66
2023-01-05T18:14:31.023Z,101429.25
2023-01-05T18:19:33.678Z,101423.97
2023-01-05T18:24:35.503Z,101429.38
2023-01-05T18:29:38.055Z,101418.13
2023-01-05T18:34:40.221Z,101421.97
2023-01-05T18:39:43.478Z,101422.31
2023-01-05T18:44:45.459Z,101411.88
2023-01-05T18:49:47.187Z,101403.72
2023-01-05T18:54:49.197Z,101402.75
2023-01-05T18:59:51.896Z,101402.38
2023-01-05T19:04:53.664Z,101393.97
2023-01-05T19:09:55.506Z,101393.41
2023-01-05T19:14:57.485Z,101391.66
2023-01-05T19:19:59.438Z,101392.59
2023-01-05T19:25:01.635Z,101385.78
2023-01-05T19:30:03.481Z,101383.34
2023-01-05T19:35:06.370Z,101386.44
2023-01-05T19:40:09.989Z,101396.84
2023-01-05T19:45:11.872Z,101391.31
2023-01-05T19:50:14.807Z,101385.69
2023-01-05T19:55:16.537Z,101385.84
2023-01-05T20:00:18.327Z,101382.44
2023-01-05T20:05:20.034Z,101375.69
2023-01-05T20:10:22.566Z,101377.94
2023-01-05T20:15:24.578Z,101391.31
2023-01-05T20:20:26.283Z,101380.69
2023-01-05T20:25:27.974Z,101386.47
2023-01-05T20:30:29.678Z,101376.28
2023-01-05T20:35:31.355Z,101386.94
2023-01-05T20:40:33.076Z,101378.94
2023-01-05T20:45:34.796Z,101385.09
2023-01-05T20:50:36.737Z,101388.78
2023-01-05T20:55:40.374Z,101387.56
2023-01-05T21:01:10.505Z,101389.38
2023-01-05T21:06:05.976Z,101393.19
2023-01-05T21:11:15.976Z,101392.06
2023-01-05T21:16:20.964Z,101398.00
2023-01-05T21:21:24.569Z,101384.09
2023-01-05T21:26:26.585Z,101377.59
2023-01-05T21:31:28.338Z,101381.13
2023-01-05T21:36:31.993Z,101381.94
2023-01-05T21:41:53.107Z,101379.50
2023-01-05T21:46:54.786Z,101382.97
2023-01-05T21:52:14.985Z,101388.44
2023-01-05T21:57:17.666Z,101381.34
2023-01-05T22:02:19.487Z,101382.22
2023-01-05T22:07:21.199Z,101375.88
2023-01-05T22:12:22.874Z,101366.16
2023-01-05T22:17:24.936Z,101361.25
2023-01-05T22:22:26.677Z,101352.44
2023-01-05T22:27:29.768Z,101355.59
2023-01-05T22:32:31.513Z,101342.09
2023-01-05T22:37:33.215Z,101342.56
2023-01-05T22:42:35.141Z,101352.06
2023-01-05T22:47:36.881Z,101345.84
2023-01-05T22:52:38.520Z,101348.69
2023-01-05T22:57:40.183Z,101340.97
2023-01-05T23:02:42.039Z,101347.66
2023-01-05T23:07:43.963Z,101348.72
2023-01-05T23:12:45.685Z,101335.19
2023-01-05T23:17:47.354Z,101338.69
2023-01-05T23:22:48.992Z,101336.03
2023-01-05T23:27:52.745Z,101336.09
2023-01-05T23:32:54.700Z,101337.06
2023-01-05T23:37:56.388Z,101339.44
2023-01-05T23:42:58.033Z,101341.34
2023-01-05T23:48:00.291Z,101333.56
2023-01-05T23:53:03.903Z,101328.13
2023-01-05T23:58:06.549Z,101320.16
